createdAt,value
2023-08-07T00:00:32.859Z,99266.88
2023-08-07T00:03:01.277Z,99277.69
2023-08-07T00:05:30.063Z,99272.16
2023-08-07T00:07:58.496Z,99276.56
2023-08-07T00:10:27.830Z,99273.97
2023-08-07T00:12:55.983Z,99275.34
2023-08-07T00:15:24.163Z,99265.91
2023-08-07T00:17:52.358Z,99261.16
2023-08-07T00:20:20.101Z,99264.19
2023-08-07T00:22:48.034Z,99261.69
2023-08-07T00:25:16.261Z,99258.31
2023-08-07T00:27:44.362Z,99270.28
2023-08-07T00:30:13.108Z,99255.88
2023-08-07T00:32:41.299Z,99263.34
2023-08-07T00:35:09.815Z,99258.00
2023-08-07T00:37:38.613Z,99260.59
2023-08-07T00:40:07.305Z,99255.06
2023-08-07T00:42:35.711Z,99251.72
2023-08-07T00:45:04.138Z,99249.47
2023-08-07T00:47:33.590Z,99244.97
2023-08-07T00:50:01.529Z,99253.53
2023-08-07T00:52:29.815Z,99253.53
2023-08-07T00:54:58.277Z,99256.81
2023-08-07T00:57:26.992Z,99255.66
2023-08-07T00:59:55.437Z,99252.66
2023-08-07T01:02:23.060Z,99264.53
2023-08-07T01:04:52.168Z,99257.03
2023-08-07T01:07:20.292Z,99255.84
2023-08-07T01:09:48.451Z,99250.81
2023-08-07T01:12:26.849Z,99250.50
2023-08-07T01:15:18.210Z,99252.44
2023-08-07T01:17:46.730Z,99249.66
2023-08-07T01:20:15.640Z,99248.56
2023-08-07T01:22:44.243Z,99254.34
2023-08-07T01:25:12.595Z,99257.13
2023-08-07T01:27:55.161Z,99248.50
2023-08-07T01:30:38.005Z,99248.19
2023-08-07T01:33:08.819Z,99246.47
2023-08-07T01:35:44.027Z,99232.34
2023-08-07T01:38:16.307Z,99229.91
2023-08-07T01:40:46.372Z,99237.91
2023-08-07T01:43:14.621Z,99225.41
2023-08-07T01:45:42.736Z,99221.25
2023-08-07T01:48:10.758Z,99225.34
2023-08-07T01:50:40.083Z,99219.81
2023-08-07T01:53:08.320Z,99218.97
2023-08-07T01:55:36.365Z,99228.03
2023-08-07T01:58:04.493Z,99224.44
2023-08-07T02:00:33.295Z,99234.66
2023-08-07T02:03:03.733Z,99221.34
2023-08-07T02:05:31.816Z,99217.22
2023-08-07T02:08:02.994Z,99215.34
2023-08-07T02:10:32.598Z,99213.13
2023-08-07T02:13:00.947Z,99213.13
2023-08-07T02:15:29.161Z,99216.22
2023-08-07T02:17:57.393Z,99225.84
2023-08-07T02:20:25.722Z,99226.44
2023-08-07T02:22:53.724Z,99230.84
2023-08-07T02:25:21.836Z,99244.47
2023-08-07T02:27:50.028Z,99227.16
2023-08-07T02:30:19.097Z,99237.41
2023-08-07T02:32:47.993Z,99236.03
2023-08-07T02:35:16.982Z,99226.47
2023-08-07T02:37:45.370Z,99230.16
2023-08-07T02:40:16.757Z,99240.75
2023-08-07T02:42:45.050Z,99233.09
2023-08-07T02:45:13.199Z,99240.38
2023-08-07T02:47:41.259Z,99231.66
2023-08-07T02:50:09.607Z,99228.19
2023-08-07T02:52:37.842Z,99237.22
2023-08-07T02:55:06.462Z,99233.78
2023-08-07T02:57:34.550Z,99220.69
2023-08-07T03:00:02.594Z,99221.91
2023-08-07T03:02:30.600Z,99232.38
2023-08-07T03:04:58.343Z,99228.72
2023-08-07T03:07:26.692Z,99219.41
2023-08-07T03:09:56.193Z,99218.63
2023-08-07T03:12:24.069Z,99203.38
2023-08-07T03:14:52.118Z,99199.38
2023-08-07T03:17:22.143Z,99206.31
2023-08-07T03:19:50.881Z,99203.75
2023-08-07T03:22:18.996Z,99222.66
2023-08-07T03:24:50.294Z,99224.81
2023-08-07T03:27:18.603Z,99222.84
2023-08-07T03:29:46.725Z,99227.50
2023-08-07T03:32:15.380Z,99236.31
2023-08-07T03:34:44.728Z,99225.69
2023-08-07T03:37:13.067Z,99225.97
2023-08-07T03:39:41.499Z,99228.53
2023-08-07T03:42:10.109Z,99233.53
2023-08-07T03:44:38.269Z,99228.66
2023-08-07T03:47:06.632Z,99217.78
2023-08-07T03:49:34.741Z,99225.16
2023-08-07T03:52:03.005Z,99222.19
2023-08-07T03:54:31.440Z,99227.63
2023-08-07T03:56:59.697Z,99230.72
2023-08-07T03:59:27.350Z,99223.44
2023-08-07T04:01:55.711Z,99224.25
2023-08-07T04:04:23.827Z,99234.06
2023-08-07T04:06:52.101Z,99220.28
2023-08-07T04:09:20.657Z,99230.88
2023-08-07T04:11:48.927Z,99229.91
2023-08-07T04:14:16.983Z,99220.00
2023-08-07T04:16:44.993Z,99225.00
2023-08-07T04:19:13.502Z,99230.50
2023-08-07T04:21:41.596Z,99228.53
2023-08-07T04:24:12.481Z,99221.47
2023-08-07T04:26:40.514Z,99223.97
2023-08-07T04:29:09.044Z,99219.91
2023-08-07T04:31:37.323Z,99204.13
2023-08-07T04:34:06.193Z,99201.25
2023-08-07T04:36:34.835Z,99203.06
2023-08-07T04:39:02.449Z,99204.66
2023-08-07T04:41:30.617Z,99213.97
2023-08-07T04:43:59.141Z,99222.16
2023-08-07T04:46:27.987Z,99221.66
2023-08-07T04:48:56.345Z,99223.22
2023-08-07T04:51:24.697Z,99216.09
2023-08-07T04:53:53.137Z,99218.06
2023-08-07T04:56:21.250Z,99211.06
2023-08-07T04:58:49.386Z,99209.84
2023-08-07T05:01:17.305Z,99212.16
2023-08-07T05:03:45.566Z,99212.34
2023-08-07T05:06:13.487Z,99205.41
2023-08-07T05:08:41.580Z,99207.13
2023-08-07T05:11:09.275Z,99203.59
2023-08-07T05:13:37.089Z,99195.34
2023-08-07T05:16:05.020Z,99204.69
2023-08-07T05:18:33.166Z,99210.56
2023-08-07T05:21:01.356Z,99214.06
2023-08-07T05:23:29.733Z,99200.56
2023-08-07T05:25:58.083Z,99196.81
2023-08-07T05:28:26.361Z,99206.69
2023-08-07T05:30:55.010Z,99199.81
2023-08-07T05:33:22.818Z,99199.09
2023-08-07T05:35:51.526Z,99193.38
2023-08-07T05:38:19.845Z,99188.38
2023-08-07T05:40:48.133Z,99197.59
2023-08-07T05:43:18.067Z,99193.88
2023-08-07T05:45:47.682Z,99192.91
2023-08-07T05:48:17.749Z,99199.59
2023-08-07T05:50:46.109Z,99198.25
2023-08-07T05:53:14.170Z,99196.81
2023-08-07T05:55:43.958Z,99192.97
2023-08-07T05:58:12.329Z,99208.28
2023-08-07T06:00:40.916Z,99196.19
2023-08-07T06:03:10.204Z,99207.78
2023-08-07T06:05:38.228Z,99211.34
2023-08-07T06:08:06.362Z,99205.31
2023-08-07T06:10:34.871Z,99207.34
2023-08-07T06:13:03.322Z,99203.31
2023-08-07T06:15:32.518Z,99204.78
2023-08-07T06:18:01.556Z,99209.47
2023-08-07T06:20:30.188Z,99211.38
2023-08-07T06:22:58.230Z,99213.00
2023-08-07T06:25:26.293Z,99208.88
2023-08-07T06:27:54.327Z,99212.75
2023-08-07T06:30:22.196Z,99207.97
2023-08-07T06:32:50.689Z,99205.47
2023-08-07T06:35:18.955Z,99208.16
2023-08-07T06:37:46.985Z,99211.88
2023-08-07T06:40:15.014Z,99211.84
2023-08-07T06:42:43.090Z,99208.31
2023-08-07T06:45:11.378Z,99195.03
2023-08-07T06:47:39.621Z,99207.84
2023-08-07T06:50:08.079Z,99201.19
2023-08-07T06:52:36.457Z,99210.56
2023-08-07T06:55:04.931Z,99199.59
2023-08-07T06:57:33.205Z,99214.84
2023-08-07T07:00:01.253Z,99218.94
2023-08-07T07:02:29.728Z,99223.53
2023-08-07T07:04:58.097Z,99230.72
2023-08-07T07:07:26.011Z,99230.69
2023-08-07T07:09:53.663Z,99230.25
2023-08-07T07:12:21.892Z,99225.31
2023-08-07T07:14:49.984Z,99223.09
2023-08-07T07:17:17.609Z,99221.81
2023-08-07T07:19:45.918Z,99222.56
2023-08-07T07:22:14.099Z,99219.53
2023-08-07T07:24:41.934Z,99223.75
2023-08-07T07:27:09.766Z,99229.84
2023-08-07T07:29:38.299Z,99229.03
2023-08-07T07:32:07.341Z,99224.88
2023-08-07T07:34:35.266Z,99224.63
2023-08-07T07:37:03.250Z,99222.94
2023-08-07T07:39:31.831Z,99224.19
2023-08-07T07:42:00.068Z,99236.09
2023-08-07T07:44:28.125Z,99231.25
2023-08-07T07:46:56.391Z,99224.53
2023-08-07T07:49:24.441Z,99229.78
2023-08-07T07:51:52.512Z,99230.44
2023-08-07T07:54:20.527Z,99237.69
2023-08-07T07:56:48.680Z,99250.94
2023-08-07T07:59:17.713Z,99248.75
2023-08-07T08:01:46.138Z,99238.63
2023-08-07T08:04:14.309Z,99251.94
2023-08-07T08:06:44.123Z,99260.41
2023-08-07T08:09:12.425Z,99259.97
2023-08-07T08:11:41.073Z,99259.38
2023-08-07T08:14:12.105Z,99261.81
2023-08-07T08:16:40.244Z,99261.97
2023-08-07T08:19:11.057Z,99266.56
2023-08-07T08:21:41.597Z,99268.41
2023-08-07T08:24:09.929Z,99271.44
2023-08-07T08:26:37.753Z,99264.72
2023-08-07T08:29:09.326Z,99267.97
2023-08-07T08:31:37.362Z,99262.44
2023-08-07T08:34:05.588Z,99272.84
2023-08-07T08:36:34.000Z,99272.91
2023-08-07T08:39:03.147Z,99272.97
2023-08-07T08:41:33.390Z,99286.63
2023-08-07T08:44:02.292Z,99284.13
2023-08-07T08:46:31.186Z,99294.19
2023-08-07T08:49:03.012Z,99289.03
2023-08-07T08:51:32.019Z,99299.47
2023-08-07T08:54:01.355Z,99295.16
2023-08-07T08:56:31.343Z,99301.88
2023-08-07T08:58:59.439Z,99307.69
2023-08-07T09:01:27.571Z,99313.91
2023-08-07T09:03:55.868Z,99317.63
2023-08-07T09:06:24.312Z,99315.75
2023-08-07T09:08:53.226Z,99311.66
2023-08-07T09:11:21.029Z,99316.94
2023-08-07T09:13:50.923Z,99315.09
2023-08-07T09:16:19.866Z,99317.16
2023-08-07T09:18:50.200Z,99318.63
2023-08-07T09:21:18.350Z,99305.38
2023-08-07T09:23:46.075Z,99316.75
2023-08-07T09:26:14.342Z,99319.09
2023-08-07T09:28:42.606Z,99315.94
2023-08-07T09:31:18.820Z,99324.72
2023-08-07T09:33:51.602Z,99319.06
2023-08-07T09:36:20.132Z,99321.41
2023-08-07T09:38:51.700Z,99324.53
2023-08-07T09:41:21.555Z,99330.13
2023-08-07T09:43:49.902Z,99326.75
2023-08-07T09:46:19.188Z,99334.56
2023-08-07T09:48:47.588Z,99335.81
2023-08-07T09:51:15.350Z,99341.03
2023-08-07T09:53:44.664Z,99345.78
2023-08-07T09:56:16.218Z,99341.41
2023-08-07T09:58:52.353Z,99350.16
2023-08-07T10:01:22.821Z,99341.88
2023-08-07T10:03:51.129Z,99349.38
2023-08-07T10:06:27.885Z,99355.06
2023-08-07T10:08:56.785Z,99355.69
2023-08-07T10:11:26.177Z,99356.72
2023-08-07T10:13:55.709Z,99363.50
2023-08-07T10:16:29.787Z,99364.00
2023-08-07T10:19:03.075Z,99370.78
2023-08-07T10:21:31.270Z,99365.50
2023-08-07T10:24:10.220Z,99363.66
2023-08-07T10:26:43.521Z,99365.47
2023-08-07T10:29:17.977Z,99367.41
2023-08-07T10:31:46.547Z,99370.44
2023-08-07T10:34:14.312Z,99378.69
2023-08-07T10:36:42.705Z,99370.66
2023-08-07T10:39:13.804Z,99367.88
2023-08-07T10:41:54.843Z,99372.88
2023-08-07T10:44:25.012Z,99369.22
2023-08-07T10:46:58.008Z,99375.53
2023-08-07T10:49:40.527Z,99366.06
2023-08-07T10:52:14.784Z,99372.69
2023-08-07T10:54:46.944Z,99373.41
2023-08-07T10:57:16.506Z,99376.66
2023-08-07T11:00:06.943Z,99379.13
2023-08-07T11:02:40.829Z,99382.97
2023-08-07T11:05:09.070Z,99382.16
2023-08-07T11:07:41.925Z,99380.47
2023-08-07T11:10:10.363Z,99387.25
2023-08-07T11:12:39.477Z,99386.94
2023-08-07T11:15:08.214Z,99389.38
2023-08-07T11:17:38.918Z,99390.34
2023-08-07T11:20:12.414Z,99389.34
2023-08-07T11:22:40.852Z,99395.47
2023-08-07T11:25:12.546Z,99385.88
2023-08-07T11:27:40.888Z,99388.28
2023-08-07T11:30:15.534Z,99403.66
2023-08-07T11:32:46.482Z,99391.25
2023-08-07T11:35:14.991Z,99393.88
2023-08-07T11:37:50.075Z,99393.38
2023-08-07T11:40:18.232Z,99393.66
2023-08-07T11:42:46.599Z,99391.53
2023-08-07T11:45:15.538Z,99391.53
2023-08-07T11:47:44.004Z,99391.59
2023-08-07T11:50:13.104Z,99401.53
2023-08-07T11:52:45.943Z,99394.78
2023-08-07T11:55:16.496Z,99403.16
2023-08-07T11:57:46.777Z,99404.09
2023-08-07T12:00:15.687Z,99402.88
2023-08-07T12:02:45.605Z,99413.44
2023-08-07T12:05:14.510Z,99404.03
2023-08-07T12:07:42.902Z,99414.34
2023-08-07T12:10:14.629Z,99411.06
2023-08-07T12:12:44.264Z,99420.66
2023-08-07T12:15:12.494Z,99405.63
2023-08-07T12:17:41.195Z,99420.44
2023-08-07T12:20:12.282Z,99414.63
2023-08-07T12:22:40.824Z,99422.03
2023-08-07T12:25:09.252Z,99418.63
2023-08-07T12:27:37.572Z,99430.53
2023-08-07T12:30:07.055Z,99426.72
2023-08-07T12:32:35.730Z,99431.25
2023-08-07T12:37:34.840Z,99430.75
2023-08-07T12:42:38.344Z,99429.63
2023-08-07T12:45:06.976Z,99430.97
2023-08-07T12:47:35.195Z,99435.44
2023-08-07T12:50:04.724Z,99436.78
2023-08-07T12:52:36.191Z,99433.16
2023-08-07T12:55:05.648Z,99437.84
2023-08-07T12:57:33.751Z,99436.75
2023-08-07T13:00:02.412Z,99437.59
2023-08-07T13:02:30.725Z,99435.97
2023-08-07T13:04:58.833Z,99434.41
2023-08-07T13:07:26.915Z,99431.78
2023-08-07T13:09:56.934Z,99442.03
2023-08-07T13:12:25.195Z,99435.44
2023-08-07T13:14:53.076Z,99443.22
2023-08-07T13:17:21.600Z,99439.16
2023-08-07T13:19:49.884Z,99439.69
2023-08-07T13:22:17.908Z,99428.63
2023-08-07T13:24:46.195Z,99440.03
2023-08-07T13:27:18.044Z,99438.91
2023-08-07T13:29:48.409Z,99440.28
2023-08-07T13:32:19.975Z,99438.13
2023-08-07T13:34:48.358Z,99441.38
2023-08-07T13:37:16.568Z,99447.09
2023-08-07T13:39:46.331Z,99438.94
2023-08-07T13:42:14.695Z,99445.28
2023-08-07T13:44:42.721Z,99443.41
2023-08-07T13:47:14.346Z,99444.09
2023-08-07T13:49:42.987Z,99453.69
2023-08-07T13:52:10.596Z,99450.41
2023-08-07T13:54:39.054Z,99458.59
2023-08-07T13:57:07.739Z,99457.44
2023-08-07T13:59:35.788Z,99460.03
2023-08-07T14:02:03.887Z,99452.47
2023-08-07T14:04:32.431Z,99464.28
2023-08-07T14:07:01.337Z,99469.41
2023-08-07T14:09:30.869Z,99471.16
2023-08-07T14:11:59.460Z,99474.31
2023-08-07T14:14:27.676Z,99486.63
2023-08-07T14:16:58.938Z,99469.81
2023-08-07T14:19:27.558Z,99488.72
2023-08-07T14:21:55.942Z,99492.78
2023-08-07T14:24:23.738Z,99495.16
2023-08-07T14:26:51.896Z,99494.25
2023-08-07T14:29:23.975Z,99497.78
2023-08-07T14:31:54.118Z,99497.63
2023-08-07T14:34:22.315Z,99507.91
2023-08-07T14:36:50.603Z,99503.78
2023-08-07T14:39:18.706Z,99502.00
2023-08-07T14:41:47.606Z,99503.13
2023-08-07T14:44:15.821Z,99504.75
2023-08-07T14:46:44.306Z,99504.88
2023-08-07T14:49:12.340Z,99514.97
2023-08-07T14:51:40.585Z,99507.84
2023-08-07T14:54:08.559Z,99510.56
2023-08-07T14:56:36.992Z,99513.81
2023-08-07T14:59:05.271Z,99520.72
2023-08-07T15:01:34.053Z,99513.72
2023-08-07T15:04:01.965Z,99522.38
2023-08-07T15:06:33.601Z,99523.84
2023-08-07T15:09:01.933Z,99520.81
2023-08-07T15:11:30.268Z,99528.75
2023-08-07T15:13:58.296Z,99526.38
2023-08-07T15:16:26.980Z,99528.69
2023-08-07T15:18:55.217Z,99529.69
2023-08-07T15:21:23.412Z,99526.94
2023-08-07T15:23:51.289Z,99530.97
2023-08-07T15:26:19.474Z,99537.63
2023-08-07T15:28:47.659Z,99541.69
2023-08-07T15:31:15.552Z,99543.13
2023-08-07T15:33:49.110Z,99541.84
2023-08-07T15:36:17.860Z,99544.75
2023-08-07T15:38:46.359Z,99540.84
2023-08-07T15:41:15.868Z,99548.59
2023-08-07T15:43:45.206Z,99559.56
2023-08-07T15:46:13.808Z,99542.09
2023-08-07T15:48:41.911Z,99558.00
2023-08-07T15:51:10.609Z,99562.75
2023-08-07T15:53:38.826Z,99559.25
2023-08-07T15:56:07.253Z,99560.53
2023-08-07T15:58:35.940Z,99567.22
2023-08-07T16:01:04.165Z,99569.19
2023-08-07T16:03:32.007Z,99570.63
2023-08-07T16:06:00.404Z,99570.97
2023-08-07T16:08:28.601Z,99569.16
2023-08-07T16:10:56.777Z,99581.00
2023-08-07T16:13:25.266Z,99578.47
2023-08-07T16:15:53.765Z,99581.88
2023-08-07T16:18:22.243Z,99589.34
2023-08-07T16:20:51.947Z,99593.94
2023-08-07T16:23:20.095Z,99602.06
2023-08-07T16:25:48.906Z,99607.38
2023-08-07T16:28:17.586Z,99605.75
2023-08-07T16:30:46.056Z,99607.69
2023-08-07T16:33:15.259Z,99622.41
2023-08-07T16:35:43.506Z,99622.38
2023-08-07T16:38:13.211Z,99615.69
2023-08-07T16:40:42.270Z,99631.19
2023-08-07T16:43:10.359Z,99633.13
2023-08-07T16:45:38.416Z,99630.56
2023-08-07T16:48:06.934Z,99641.03
2023-08-07T16:50:35.149Z,99645.16
2023-08-07T16:53:03.345Z,99644.53
2023-08-07T16:55:31.508Z,99644.13
2023-08-07T16:57:59.608Z,99654.59
2023-08-07T17:00:27.770Z,99649.22
2023-08-07T17:02:55.928Z,99656.03
2023-08-07T17:05:24.891Z,99653.22
2023-08-07T17:07:53.194Z,99664.50
2023-08-07T17:10:21.350Z,99675.81
2023-08-07T17:12:49.124Z,99680.22
2023-08-07T17:15:17.413Z,99683.19
2023-08-07T17:17:45.992Z,99693.59
2023-08-07T17:20:14.796Z,99690.47
2023-08-07T17:22:43.323Z,99697.06
2023-08-07T17:25:11.317Z,99702.78
2023-08-07T17:27:39.840Z,99701.28
2023-08-07T17:30:08.642Z,99709.47
2023-08-07T17:32:38.593Z,99717.91
2023-08-07T17:35:07.617Z,99720.78
2023-08-07T17:37:36.147Z,99714.94
2023-08-07T17:40:05.008Z,99720.34
2023-08-07T17:42:33.526Z,99729.31
2023-08-07T17:45:01.752Z,99731.34
2023-08-07T17:47:45.475Z,99755.50
2023-08-07T17:50:13.666Z,99752.31
2023-08-07T17:52:41.722Z,99757.00
2023-08-07T17:55:13.130Z,99762.84
2023-08-07T17:57:43.373Z,99765.47
2023-08-07T18:00:12.561Z,99765.13
2023-08-07T18:02:41.231Z,99772.56
2023-08-07T18:05:10.970Z,99780.88
2023-08-07T18:07:39.992Z,99791.69
2023-08-07T18:10:10.132Z,99791.09
2023-08-07T18:12:38.220Z,99800.56
2023-08-07T18:15:07.421Z,99790.69
2023-08-07T18:17:36.699Z,99791.78
2023-08-07T18:20:07.779Z,99806.94
2023-08-07T18:22:35.994Z,99806.59
2023-08-07T18:25:04.461Z,99810.13
2023-08-07T18:27:32.650Z,99807.84
2023-08-07T18:30:00.841Z,99806.66
2023-08-07T18:32:30.196Z,99811.91
2023-08-07T18:34:58.806Z,99813.72
2023-08-07T18:37:27.101Z,99808.94
2023-08-07T18:39:55.399Z,99808.81
2023-08-07T18:42:23.923Z,99818.69
2023-08-07T18:44:51.918Z,99811.72
2023-08-07T18:47:20.253Z,99814.66
2023-08-07T18:49:48.348Z,99806.00
2023-08-07T18:52:16.570Z,99823.91
2023-08-07T18:54:45.954Z,99822.50
2023-08-07T18:57:14.728Z,99816.38
2023-08-07T18:59:42.940Z,99817.94
2023-08-07T19:02:11.576Z,99817.84
2023-08-07T19:04:39.778Z,99820.53
2023-08-07T19:07:07.819Z,99831.72
2023-08-07T19:09:35.928Z,99827.75
2023-08-07T19:12:03.894Z,99832.09
2023-08-07T19:14:32.052Z,99834.75
2023-08-07T19:17:01.268Z,99837.13
2023-08-07T19:19:32.527Z,99832.59
2023-08-07T19:22:00.968Z,99845.56
2023-08-07T19:24:29.310Z,99843.28
2023-08-07T19:26:57.981Z,99840.16
2023-08-07T19:29:26.606Z,99836.81
2023-08-07T19:31:54.393Z,99834.91
2023-08-07T19:34:23.741Z,99843.31
2023-08-07T19:36:52.234Z,99847.88
2023-08-07T19:39:20.893Z,99855.56
2023-08-07T19:41:49.213Z,99855.44
2023-08-07T19:44:17.060Z,99852.31
2023-08-07T19:46:44.812Z,99854.72
2023-08-07T19:49:13.048Z,99857.72
2023-08-07T19:51:41.614Z,99863.50
2023-08-07T19:54:13.305Z,99870.56
2023-08-07T19:56:41.837Z,99878.03
2023-08-07T19:59:10.089Z,99874.28
2023-08-07T20:01:38.262Z,99872.03
2023-08-07T20:04:06.359Z,99886.53
2023-08-07T20:06:39.725Z,99884.44
2023-08-07T20:09:08.866Z,99886.84
2023-08-07T20:11:38.634Z,99887.78
2023-08-07T20:14:06.829Z,99892.72
2023-08-07T20:16:36.629Z,99898.94
2023-08-07T20:19:05.805Z,99901.47
2023-08-07T20:21:33.999Z,99897.75
2023-08-07T20:24:01.926Z,99904.09
2023-08-07T20:26:34.004Z,99903.25
2023-08-07T20:29:02.556Z,99900.34
2023-08-07T20:31:31.141Z,99901.31
2023-08-07T20:34:00.091Z,99903.69
2023-08-07T20:36:29.763Z,99901.25
2023-08-07T20:38:58.264Z,99894.31
2023-08-07T20:41:26.158Z,99900.88
2023-08-07T20:43:54.400Z,99908.78
2023-08-07T20:46:22.876Z,99916.47
2023-08-07T20:48:52.101Z,99924.59
2023-08-07T20:51:21.511Z,99925.06
2023-08-07T20:53:50.159Z,99924.06
2023-08-07T20:56:18.077Z,99925.59
2023-08-07T20:58:46.873Z,99931.56
2023-08-07T21:01:15.737Z,99931.56
2023-08-07T21:03:44.463Z,99936.81
2023-08-07T21:06:12.618Z,99940.22
2023-08-07T21:08:40.668Z,99941.28
2023-08-07T21:11:08.545Z,99952.91
2023-08-07T21:13:39.352Z,99951.00
2023-08-07T21:16:07.687Z,99953.53
2023-08-07T21:18:36.176Z,99958.88
2023-08-07T21:21:04.755Z,99958.72
2023-08-07T21:23:36.035Z,99951.63
2023-08-07T21:26:04.599Z,99952.16
2023-08-07T21:28:33.779Z,99966.00
2023-08-07T21:31:02.280Z,99968.22
2023-08-07T21:33:30.643Z,99968.91
2023-08-07T21:35:59.367Z,99963.50
2023-08-07T21:38:27.845Z,99966.13
2023-08-07T21:40:55.924Z,99969.19
2023-08-07T21:43:31.359Z,99983.00
2023-08-07T21:45:59.866Z,99983.06
2023-08-07T21:48:28.254Z,99985.88
2023-08-07T21:50:55.982Z,99983.19
2023-08-07T21:53:25.313Z,99986.00
2023-08-07T21:55:53.444Z,99982.91
2023-08-07T21:58:27.257Z,99988.63
2023-08-07T22:00:55.324Z,99980.44
2023-08-07T22:03:23.495Z,99981.72
2023-08-07T22:05:52.900Z,99989.59
2023-08-07T22:08:21.511Z,99994.72
2023-08-07T22:10:49.301Z,99992.88
2023-08-07T22:13:17.480Z,99999.03
2023-08-07T22:15:45.728Z,99988.91
2023-08-07T22:18:14.561Z,99997.78
2023-08-07T22:20:43.641Z,99993.38
2023-08-07T22:23:11.839Z,99996.13
2023-08-07T22:25:40.367Z,99996.13
2023-08-07T22:28:09.057Z,99991.69
2023-08-07T22:30:37.920Z,99997.88
2023-08-07T22:33:07.080Z,99994.72
2023-08-07T22:35:35.582Z,100000.63
2023-08-07T22:38:03.916Z,99993.88
2023-08-07T22:40:31.769Z,99996.69
2023-08-07T22:42:59.970Z,99995.19
2023-08-07T22:45:28.302Z,99994.13
2023-08-07T22:47:56.442Z,99998.16
2023-08-07T22:50:27.162Z,100004.53
2023-08-07T22:52:55.775Z,100008.38
2023-08-07T22:55:24.528Z,100015.53
2023-08-07T22:57:52.487Z,100016.16
2023-08-07T23:00:20.906Z,100008.97
2023-08-07T23:02:49.248Z,100016.16
2023-08-07T23:05:17.726Z,100023.78
2023-08-07T23:07:47.062Z,100022.09
2023-08-07T23:10:15.506Z,100034.78
2023-08-07T23:12:43.773Z,100037.53
2023-08-07T23:15:11.924Z,100027.19
2023-08-07T23:17:40.606Z,100038.38
2023-08-07T23:20:09.765Z,100039.44
2023-08-07T23:22:38.316Z,100035.00
2023-08-07T23:25:07.043Z,100040.31
2023-08-07T23:27:36.038Z,100042.44
2023-08-07T23:30:06.349Z,100035.25
2023-08-07T23:32:34.666Z,100036.13
2023-08-07T23:35:03.234Z,100037.59
2023-08-07T23:37:32.687Z,100045.41
2023-08-07T23:40:01.433Z,100042.88
2023-08-07T23:42:30.300Z,100051.75
2023-08-07T23:44:58.582Z,100046.25
2023-08-07T23:47:26.708Z,100038.25
2023-08-07T23:49:54.850Z,100045.63
2023-08-07T23:52:22.997Z,100045.22
2023-08-07T23:54:50.897Z,100044.75
2023-08-07T23:57:19.027Z,100046.03
2023-08-07T23:59:47.029Z,100045.19
